ENSG/SOG METAR and TAF weather

Enter ICAO airport designator
Station Type Date Time Source
ENSG METAR 2018/10/22 17:20 UTC NOAA

ENSG 221720Z VRB02KT 1500 SHSNRA VV007 00/00 Q1005 RMK WIND 3806FT 19024KT


Station Type Date Time Source
ENSG Decoded METAR 2018/10/22 17:20 UTC NOAA

Sogndal / Haukasen, Norway (ENSG) 61-09N 007-08E 497M
Oct 22, 2018 - 01:20 PM EDT / 2018.10.22 1720 UTC
Wind: Variable at 2 MPH (2 KT):0
Visibility: less than 1 mile:0
Sky conditions: obscured
Weather: snow showers, rain
Temperature: 32 F (0 C)
Dew Point: 32 F (0 C)
Relative Humidity: 100%
Pressure (altimeter): 29.68 in. Hg (1005 hPa)
ob: ENSG 221720Z VRB02KT 1500 SHSNRA VV007 00/00 Q1005 RMK WIND 3806FT 19024KT
cycle: 17

Station Type Date Time Source
ENSG TAF UTC NOAA

Error!


Example: see airport list